Time;durP1;ratioP1;P1;durP2;ratioP2;P2;SDS_P1;SDS_P2;PMS_P1;PMS_P2;Temp;Humidity;BMP_temperature;BMP_pressure;BME280_temperature;BME280_humidity;BME280_pressure;Samples;Min_cycle;Max_cycle;Signal;HPM_P1;HPM_P2
2022/02/07 00:01:00;;;;;;;4.60;0.45;;;;;;;;;;5051997;28;20044;-77
2022/02/07 00:05:56;;;;;;;1.30;0.47;;;;;;;;;;5052612;28;20021;-76
2022/02/07 00:08:22;;;;;;;1.52;0.43;;;;;;;;;;5067341;28;20551;-75
2022/02/07 00:10:50;;;;;;;3.33;0.55;;;;;;;;;;5067043;28;20039;-76
2022/02/07 00:13:16;;;;;;;1.00;0.30;;;;;;;;;;5066815;28;20067;-76
2022/02/07 00:15:43;;;;;;;0.60;0.45;;;;;;;;;;5066720;28;20033;-76
2022/02/07 00:18:09;;;;;;;0.80;0.30;;;;;;;;;;5052039;28;20028;-76
2022/02/07 00:20:36;;;;;;;1.02;0.32;;;;;;;;;;5050967;28;20031;-76
2022/02/07 00:23:02;;;;;;;1.23;0.52;;;;;;;;;;5066795;28;20063;-76
2022/02/07 00:25:29;;;;;;;1.40;0.40;;;;;;;;;;5050728;28;20404;-76
2022/02/07 00:27:55;;;;;;;1.20;0.35;;;;;;;;;;5066861;28;20910;-75
2022/02/07 00:30:21;;;;;;;0.93;0.30;;;;;;;;;;5051586;28;20029;-77
2022/02/07 00:32:48;;;;;;;2.15;0.40;;;;;;;;;;5051845;28;20655;-77
2022/02/07 00:35:17;;;;;;;1.92;0.30;;;;;;;;;;5050906;28;20028;-76
2022/02/07 00:37:45;;;;;;;2.95;0.32;;;;;;;;;;5064923;28;20048;-76
2022/02/07 00:42:50;;;;;;;1.67;0.30;;;;;;;;;;5050900;28;20029;-76
2022/02/07 00:45:26;;;;;;;0.63;0.22;;;;;;;;;;5066542;28;20033;-76
2022/02/07 00:47:52;;;;;;;0.25;0.20;;;;;;;;;;5066860;28;20354;-76
2022/02/07 00:50:18;;;;;;;0.82;0.40;;;;;;;;;;5066927;28;20074;-75
2022/02/07 00:52:44;;;;;;;3.05;0.75;;;;;;;;;;5051075;28;20039;-75
2022/02/07 00:55:10;;;;;;;1.25;0.28;;;;;;;;;;5051499;28;20060;-76
2022/02/07 00:57:36;;;;;;;1.02;0.40;;;;;;;;;;5049338;28;20044;-76
2022/02/07 01:00:03;;;;;;;0.93;0.30;;;;;;;;;;5050501;28;20035;-75
2022/02/07 01:02:29;;;;;;;1.23;0.52;;;;;;;;;;5050841;28;20048;-76
2022/02/07 01:04:55;;;;;;;0.82;0.20;;;;;;;;;;5065349;28;20086;-77
2022/02/07 01:07:21;;;;;;;1.77;0.30;;;;;;;;;;5050822;28;20587;-76
2022/02/07 01:09:52;;;;;;;0.40;0.20;;;;;;;;;;5050885;28;20344;-76
2022/02/07 01:49:57;;;;;;;1.95;0.55;;;;;;;;;;5049627;28;20096;-75
2022/02/07 01:55:04;;;;;;;1.33;0.50;;;;;;;;;;5051114;28;20041;-78
2022/02/07 01:57:30;;;;;;;0.80;0.40;;;;;;;;;;5066250;28;20365;-75
2022/02/07 01:59:57;;;;;;;0.40;0.30;;;;;;;;;;5050664;28;20028;-76
2022/02/07 02:02:23;;;;;;;0.40;0.17;;;;;;;;;;5051511;28;20029;-76
2022/02/07 02:04:49;;;;;;;0.93;0.38;;;;;;;;;;5050825;28;20043;-78
2022/02/07 02:07:16;;;;;;;1.10;0.30;;;;;;;;;;5066153;28;20024;-75
2022/02/07 02:09:42;;;;;;;0.80;0.40;;;;;;;;;;5052489;28;20036;-75
2022/02/07 02:12:09;;;;;;;0.90;0.43;;;;;;;;;;5054540;28;20033;-75
2022/02/07 02:17:32;;;;;;;0.85;0.40;;;;;;;;;;5054115;28;21664;-76
2022/02/07 02:21:09;;;;;;;0.70;0.40;;;;;;;;;;5054152;28;20077;-76
2022/02/07 02:46:51;;;;;;;0.60;0.17;;;;;;;;;;5053539;28;20040;-77
2022/02/07 02:49:19;;;;;;;0.65;0.30;;;;;;;;;;5053336;28;20038;-77
2022/02/07 02:51:46;;;;;;;1.85;0.20;;;;;;;;;;5068485;28;20490;-76
2022/02/07 02:54:12;;;;;;;1.30;0.50;;;;;;;;;;5053431;28;20064;-77
2022/02/07 02:56:40;;;;;;;2.40;0.95;;;;;;;;;;5054341;28;20033;-75
2022/02/07 02:59:09;;;;;;;1.27;0.52;;;;;;;;;;5068002;28;20658;-77
2022/02/07 03:01:35;;;;;;;0.60;0.40;;;;;;;;;;5052900;28;20108;-77
2022/02/07 03:04:01;;;;;;;1.23;0.22;;;;;;;;;;5067961;28;20043;-77
2022/02/07 03:06:27;;;;;;;0.82;0.40;;;;;;;;;;5068384;28;20032;-77
2022/02/07 03:08:54;;;;;;;0.93;0.40;;;;;;;;;;5053033;28;20440;-76
2022/02/07 03:11:23;;;;;;;0.52;0.32;;;;;;;;;;5052485;28;20076;-76
2022/02/07 03:13:55;;;;;;;0.90;0.45;;;;;;;;;;5068680;28;20040;-77
2022/02/07 03:16:40;;;;;;;1.15;0.30;;;;;;;;;;5053638;28;20025;-77
2022/02/07 03:19:10;;;;;;;0.20;0.20;;;;;;;;;;5051552;28;20027;-76
2022/02/07 03:21:37;;;;;;;2.75;0.40;;;;;;;;;;5066284;28;20533;-77
2022/02/07 03:24:06;;;;;;;0.47;0.28;;;;;;;;;;5051886;28;20055;-75
2022/02/07 03:26:35;;;;;;;1.85;0.40;;;;;;;;;;5053245;28;20037;-76
2022/02/07 03:29:04;;;;;;;2.97;0.28;;;;;;;;;;5051826;28;20057;-77
2022/02/07 03:31:30;;;;;;;0.75;0.75;;;;;;;;;;5052088;28;20056;-76
2022/02/07 03:33:56;;;;;;;0.90;0.35;;;;;;;;;;5051727;28;20028;-75
2022/02/07 03:36:22;;;;;;;0.30;0.10;;;;;;;;;;5051901;28;20952;-76
2022/02/07 03:38:48;;;;;;;0.82;0.43;;;;;;;;;;5052360;28;20033;-77
2022/02/07 03:41:14;;;;;;;1.55;0.20;;;;;;;;;;5051471;28;20028;-76
2022/02/07 03:43:40;;;;;;;0.63;0.30;;;;;;;;;;5051651;28;20033;-76
2022/02/07 03:46:06;;;;;;;0.88;0.32;;;;;;;;;;5067432;28;20020;-75
2022/02/07 03:48:33;;;;;;;3.03;0.30;;;;;;;;;;5051119;28;20028;-77
2022/02/07 03:51:01;;;;;;;0.20;0.20;;;;;;;;;;5067191;28;20606;-77
2022/02/07 03:53:27;;;;;;;0.22;0.17;;;;;;;;;;5051500;28;20032;-76
2022/02/07 03:55:56;;;;;;;3.40;0.30;;;;;;;;;;5067353;28;20814;-77
2022/02/07 03:58:22;;;;;;;0.98;0.35;;;;;;;;;;5051155;28;20031;-76
2022/02/07 04:00:49;;;;;;;1.33;0.45;;;;;;;;;;5052484;28;20033;-77
2022/02/07 04:03:16;;;;;;;2.28;0.30;;;;;;;;;;5051910;28;20075;-77
2022/02/07 04:08:18;;;;;;;1.20;0.30;;;;;;;;;;5051876;28;20377;-76
2022/02/07 04:11:10;;;;;;;1.17;0.30;;;;;;;;;;5050711;28;20028;-77
2022/02/07 04:13:38;;;;;;;2.17;0.47;;;;;;;;;;5066814;28;20040;-76
2022/02/07 04:16:05;;;;;;;0.60;0.40;;;;;;;;;;5051898;28;20120;-74
2022/02/07 04:18:59;;;;;;;0.30;0.30;;;;;;;;;;5051564;28;20066;-76
2022/02/07 04:21:17;;;;;;;1.65;0.40;;;;;;;;;;5051713;28;20293;-76
2022/02/07 04:23:43;;;;;;;0.93;0.25;;;;;;;;;;5051911;28;20028;-75
2022/02/07 04:26:09;;;;;;;0.40;0.30;;;;;;;;;;5052394;28;20032;-76
2022/02/07 04:28:36;;;;;;;0.40;0.30;;;;;;;;;;5067429;28;20024;-75
2022/02/07 04:31:02;;;;;;;0.85;0.40;;;;;;;;;;5049807;28;20173;-77
2022/02/07 04:33:30;;;;;;;2.35;0.63;;;;;;;;;;5050729;28;20043;-77
2022/02/07 04:35:57;;;;;;;2.05;0.52;;;;;;;;;;5066446;28;20090;-77
2022/02/07 04:38:23;;;;;;;2.55;0.77;;;;;;;;;;5051050;28;20054;-74
2022/02/07 04:40:51;;;;;;;0.68;0.30;;;;;;;;;;5050807;28;20029;-76
2022/02/07 04:43:18;;;;;;;1.23;0.30;;;;;;;;;;5066506;28;20189;-75
2022/02/07 04:46:07;;;;;;;0.88;0.40;;;;;;;;;;5051125;28;20118;-75
2022/02/07 04:51:15;;;;;;;0.47;0.30;;;;;;;;;;5050705;28;20123;-75
2022/02/07 04:59:16;;;;;;;0.55;0.22;;;;;;;;;;5050815;28;20048;-77
2022/02/07 05:01:55;;;;;;;1.58;0.47;;;;;;;;;;5065731;28;20087;-76
2022/02/07 05:04:38;;;;;;;2.80;0.85;;;;;;;;;;5049739;28;20318;-76
2022/02/07 05:15:25;;;;;;;1.90;0.50;;;;;;;;;;5051516;28;20044;-76
2022/02/07 05:17:51;;;;;;;1.75;0.22;;;;;;;;;;5051430;28;20033;-77
2022/02/07 05:20:19;;;;;;;1.08;0.20;;;;;;;;;;5050733;28;20036;-76
2022/02/07 05:22:45;;;;;;;1.08;0.30;;;;;;;;;;5065869;28;20028;-77
2022/02/07 05:25:11;;;;;;;2.00;0.40;;;;;;;;;;5050912;28;20110;-77
2022/02/07 05:27:37;;;;;;;0.93;0.10;;;;;;;;;;5065604;28;20445;-75
2022/02/07 05:30:04;;;;;;;0.35;0.10;;;;;;;;;;5050860;28;20033;-77
2022/02/07 05:32:30;;;;;;;1.05;0.35;;;;;;;;;;5065853;28;20036;-77
2022/02/07 05:34:58;;;;;;;0.90;0.20;;;;;;;;;;5065660;28;20039;-76
2022/02/07 05:37:28;;;;;;;0.40;0.20;;;;;;;;;;5066276;28;20617;-76
2022/02/07 05:40:05;;;;;;;1.17;0.43;;;;;;;;;;5065939;28;20090;-77
2022/02/07 05:42:34;;;;;;;0.40;0.20;;;;;;;;;;5065902;28;20036;-75
2022/02/07 05:45:01;;;;;;;1.00;0.40;;;;;;;;;;5070005;28;20476;-76
2022/02/07 05:47:27;;;;;;;0.43;0.25;;;;;;;;;;5054176;28;20111;-77
2022/02/07 05:49:53;;;;;;;0.22;0.20;;;;;;;;;;5069377;28;20480;-78
2022/02/07 05:52:19;;;;;;;0.60;0.25;;;;;;;;;;5053940;28;21731;-77
2022/02/07 05:54:48;;;;;;;0.80;0.40;;;;;;;;;;5053349;28;20094;-79
2022/02/07 05:57:14;;;;;;;0.80;0.47;;;;;;;;;;5070379;28;20205;-78
2022/02/07 05:59:40;;;;;;;1.65;0.35;;;;;;;;;;5070051;28;20413;-78
2022/02/07 06:02:06;;;;;;;0.50;0.20;;;;;;;;;;5054955;28;20025;-76
2022/02/07 06:04:32;;;;;;;0.40;0.20;;;;;;;;;;5069699;28;21805;-77
2022/02/07 06:06:58;;;;;;;2.38;0.68;;;;;;;;;;5069877;28;20029;-78
2022/02/07 06:09:25;;;;;;;1.13;0.47;;;;;;;;;;5053760;28;20037;-75
2022/02/07 06:11:51;;;;;;;0.73;0.30;;;;;;;;;;5056916;28;20032;-77
2022/02/07 06:14:17;;;;;;;0.32;0.20;;;;;;;;;;5057709;28;20036;-78
2022/02/07 06:16:43;;;;;;;0.38;0.17;;;;;;;;;;5074623;28;20021;-78
2022/02/07 06:19:09;;;;;;;0.70;0.20;;;;;;;;;;5070310;28;20036;-76
2022/02/07 06:21:36;;;;;;;1.58;0.45;;;;;;;;;;5053217;28;20702;-76
2022/02/07 06:24:02;;;;;;;0.63;0.30;;;;;;;;;;5053974;28;20032;-77
2022/02/07 06:26:34;;;;;;;1.65;0.40;;;;;;;;;;5053480;28;20044;-77
2022/02/07 06:29:00;;;;;;;7.05;0.50;;;;;;;;;;5069894;28;20037;-77
2022/02/07 06:31:27;;;;;;;5.93;0.60;;;;;;;;;;5068745;28;20041;-76
2022/02/07 06:33:53;;;;;;;1.33;0.65;;;;;;;;;;5067921;28;20338;-77
2022/02/07 06:36:20;;;;;;;0.30;0.20;;;;;;;;;;5069075;28;20453;-76
2022/02/07 06:38:47;;;;;;;2.85;0.52;;;;;;;;;;5053555;28;20109;-77
2022/02/07 06:41:13;;;;;;;1.20;0.60;;;;;;;;;;5067648;28;20029;-76
2022/02/07 06:43:39;;;;;;;0.63;0.32;;;;;;;;;;5053404;28;20542;-77
2022/02/07 06:46:05;;;;;;;2.40;0.32;;;;;;;;;;5052630;28;20029;-75
2022/02/07 06:48:35;;;;;;;3.65;0.20;;;;;;;;;;5068358;28;20028;-76
2022/02/07 06:51:01;;;;;;;0.60;0.20;;;;;;;;;;5067273;28;20103;-76
2022/02/07 06:53:27;;;;;;;3.08;0.52;;;;;;;;;;5069107;28;20036;-77
2022/02/07 06:55:53;;;;;;;3.53;0.68;;;;;;;;;;5051314;28;20033;-74
2022/02/07 06:58:19;;;;;;;1.10;0.30;;;;;;;;;;5052917;28;20029;-76
2022/02/07 07:00:46;;;;;;;1.63;0.50;;;;;;;;;;5068324;28;20453;-78
2022/02/07 07:03:16;;;;;;;1.52;0.32;;;;;;;;;;5068741;28;20028;-76
2022/02/07 07:05:43;;;;;;;3.08;0.20;;;;;;;;;;5052435;28;20021;-76
2022/02/07 07:08:09;;;;;;;0.98;0.30;;;;;;;;;;5052219;28;20033;-76
2022/02/07 07:10:35;;;;;;;1.95;0.65;;;;;;;;;;5068158;28;20048;-75
2022/02/07 07:13:10;;;;;;;1.65;0.20;;;;;;;;;;5068311;28;20029;-76
2022/02/07 07:15:42;;;;;;;0.50;0.50;;;;;;;;;;5052301;28;20040;-77
2022/02/07 07:18:09;;;;;;;1.80;0.40;;;;;;;;;;5052986;28;20029;-77
2022/02/07 07:20:35;;;;;;;0.40;0.20;;;;;;;;;;5051803;28;20051;-76
2022/02/07 07:23:05;;;;;;;1.58;0.43;;;;;;;;;;5052116;28;20029;-76
2022/02/07 07:25:32;;;;;;;0.98;0.20;;;;;;;;;;5051898;28;20028;-77
2022/02/07 07:28:04;;;;;;;1.65;0.68;;;;;;;;;;5052707;28;20275;-74
2022/02/07 07:30:36;;;;;;;0.80;0.50;;;;;;;;;;5067369;28;20028;-75
2022/02/07 07:33:03;;;;;;;12.70;3.57;;;;;;;;;;5051448;28;20834;-79
2022/02/07 07:35:29;;;;;;;12.60;2.40;;;;;;;;;;5052054;28;20029;-79
2022/02/07 07:37:56;;;;;;;23.40;4.93;;;;;;;;;;5052080;28;20070;-76
2022/02/07 07:40:22;;;;;;;22.67;5.47;;;;;;;;;;5051082;28;20029;-76
2022/02/07 07:42:53;;;;;;;19.25;3.92;;;;;;;;;;5050540;28;21065;-75
2022/02/07 07:45:22;;;;;;;9.13;3.00;;;;;;;;;;5050612;28;20043;-75
2022/02/07 07:47:50;;;;;;;14.52;4.70;;;;;;;;;;5066144;28;20082;-76
2022/02/07 07:53:23;;;;;;;16.10;3.58;;;;;;;;;;5051029;28;20909;-75
2022/02/07 08:03:41;;;;;;;11.77;2.90;;;;;;;;;;5051180;28;20328;-77
2022/02/07 08:06:18;;;;;;;10.05;2.00;;;;;;;;;;5051957;28;20119;-77
2022/02/07 08:09:16;;;;;;;11.95;2.72;;;;;;;;;;5050848;28;20559;-75
2022/02/07 08:11:39;;;;;;;10.57;2.83;;;;;;;;;;5052025;28;20043;-76
2022/02/07 08:14:10;;;;;;;9.00;2.55;;;;;;;;;;5067150;28;20033;-75
2022/02/07 08:16:36;;;;;;;14.50;2.20;;;;;;;;;;5065818;28;20369;-74
2022/02/07 08:19:06;;;;;;;9.13;2.22;;;;;;;;;;5050465;28;20029;-77
2022/02/07 08:21:33;;;;;;;6.63;2.30;;;;;;;;;;5051134;28;20033;-76
2022/02/07 08:23:59;;;;;;;8.20;1.60;;;;;;;;;;5051095;28;20035;-75
2022/02/07 08:26:28;;;;;;;4.57;1.65;;;;;;;;;;5051057;28;20119;-77
2022/02/07 08:28:56;;;;;;;3.50;1.20;;;;;;;;;;5066759;28;20028;-76
2022/02/07 08:31:24;;;;;;;6.00;1.25;;;;;;;;;;5051810;28;20445;-76
2022/02/07 08:33:50;;;;;;;6.78;2.20;;;;;;;;;;5051123;28;20029;-77
2022/02/07 08:36:20;;;;;;;5.30;1.92;;;;;;;;;;5064863;28;20052;-76
2022/02/07 08:38:46;;;;;;;4.60;0.95;;;;;;;;;;5051120;28;20039;-76
2022/02/07 08:41:12;;;;;;;7.32;2.05;;;;;;;;;;5050455;28;20028;-76
2022/02/07 08:43:38;;;;;;;4.85;1.20;;;;;;;;;;5066882;28;20051;-77
2022/02/07 08:46:04;;;;;;;5.40;2.53;;;;;;;;;;5050529;28;20087;-76
2022/02/07 08:48:31;;;;;;;5.65;1.33;;;;;;;;;;5066973;28;20032;-76
2022/02/07 08:50:57;;;;;;;4.97;1.10;;;;;;;;;;5050708;28;20036;-76
2022/02/07 08:53:34;;;;;;;3.78;1.05;;;;;;;;;;5050418;28;20036;-75
2022/02/07 08:56:02;;;;;;;1.92;0.90;;;;;;;;;;5065953;28;20036;-76
2022/02/07 08:58:31;;;;;;;5.95;1.30;;;;;;;;;;5066514;28;20033;-76
2022/02/07 09:09:07;;;;;;;6.05;1.05;;;;;;;;;;5039180;28;20048;-76
2022/02/07 09:11:34;;;;;;;11.07;1.63;;;;;;;;;;5050885;28;20684;-77
2022/02/07 09:14:09;;;;;;;2.92;1.23;;;;;;;;;;5050713;28;20116;-77
2022/02/07 09:16:36;;;;;;;2.92;0.95;;;;;;;;;;5066280;28;20061;-74
2022/02/07 09:19:02;;;;;;;3.63;0.93;;;;;;;;;;5069264;28;20025;-76
2022/02/07 09:21:29;;;;;;;7.13;1.05;;;;;;;;;;5054450;28;20105;-76
2022/02/07 09:23:56;;;;;;;7.53;1.17;;;;;;;;;;5053495;28;20027;-76
2022/02/07 09:26:22;;;;;;;3.08;0.95;;;;;;;;;;5054016;28;20024;-75
2022/02/07 09:28:48;;;;;;;2.67;1.15;;;;;;;;;;5053322;28;20037;-76
2022/02/07 09:31:15;;;;;;;7.00;1.70;;;;;;;;;;5054152;28;20051;-76
2022/02/07 09:33:44;;;;;;;1.63;0.68;;;;;;;;;;5054337;28;20028;-76
2022/02/07 09:36:13;;;;;;;3.35;1.10;;;;;;;;;;5053989;28;20039;-75
2022/02/07 09:38:39;;;;;;;5.55;1.25;;;;;;;;;;5069694;28;20056;-76
2022/02/07 09:41:06;;;;;;;1.42;0.73;;;;;;;;;;5070096;28;20027;-76
2022/02/07 09:43:35;;;;;;;3.80;0.88;;;;;;;;;;5053649;28;20048;-76
2022/02/07 09:46:07;;;;;;;4.00;1.17;;;;;;;;;;5069406;28;20529;-75
2022/02/07 09:48:34;;;;;;;2.30;1.08;;;;;;;;;;5054580;28;20028;-78
2022/02/07 09:51:00;;;;;;;5.72;1.20;;;;;;;;;;5068714;28;20032;-76
2022/02/07 09:53:27;;;;;;;4.15;1.23;;;;;;;;;;5053859;28;20025;-77
2022/02/07 09:55:57;;;;;;;3.05;0.85;;;;;;;;;;5053016;28;20029;-75
2022/02/07 09:58:23;;;;;;;3.10;1.20;;;;;;;;;;5069801;28;20369;-75
2022/02/07 10:00:49;;;;;;;1.63;0.68;;;;;;;;;;5054390;28;20078;-76
2022/02/07 10:06:00;;;;;;;3.20;0.93;;;;;;;;;;5053579;28;20041;-75
2022/02/07 10:08:49;;;;;;;1.95;0.75;;;;;;;;;;5053745;28;20105;-76
2022/02/07 10:14:51;;;;;;;2.75;0.95;;;;;;;;;;5053214;28;20028;-76
2022/02/07 10:43:22;;;;;;;1.88;0.80;;;;;;;;;;5052384;28;20105;-77
2022/02/07 10:45:52;;;;;;;2.75;0.45;;;;;;;;;;5068870;28;20040;-78
2022/02/07 10:48:37;;;;;;;4.55;1.13;;;;;;;;;;5068251;28;20040;-78
2022/02/07 10:51:09;;;;;;;1.73;0.70;;;;;;;;;;5052734;28;20476;-77
2022/02/07 10:53:39;;;;;;;1.05;0.60;;;;;;;;;;5053167;28;20043;-79
2022/02/07 10:56:06;;;;;;;4.22;0.77;;;;;;;;;;5067745;28;20047;-77
2022/02/07 10:58:32;;;;;;;5.00;1.02;;;;;;;;;;5067961;28;20038;-76
2022/02/07 11:01:08;;;;;;;1.70;0.80;;;;;;;;;;5068790;28;20695;-76
2022/02/07 11:03:41;;;;;;;3.00;0.60;;;;;;;;;;5052816;28;20974;-76
2022/02/07 11:06:10;;;;;;;3.42;0.52;;;;;;;;;;5053289;28;20040;-76
2022/02/07 11:08:47;;;;;;;3.75;1.02;;;;;;;;;;5053236;28;20028;-77
2022/02/07 11:16:54;;;;;;;3.90;0.82;;;;;;;;;;5052125;28;20032;-78
2022/02/07 11:27:35;;;;;;;5.00;1.40;;;;;;;;;;5052873;28;20029;-75
2022/02/07 11:30:03;;;;;;;1.50;0.55;;;;;;;;;;5067211;28;20029;-79
2022/02/07 11:32:51;;;;;;;2.25;0.50;;;;;;;;;;5067927;28;20032;-76
2022/02/07 11:35:19;;;;;;;4.53;1.30;;;;;;;;;;5052423;28;20037;-78
2022/02/07 11:37:51;;;;;;;3.75;1.02;;;;;;;;;;5052365;28;20029;-75
2022/02/07 11:40:27;;;;;;;4.45;1.63;;;;;;;;;;5052087;28;20036;-75
2022/02/07 11:43:06;;;;;;;3.45;0.50;;;;;;;;;;5067992;28;20041;-75
2022/02/07 11:45:52;;;;;;;3.45;0.90;;;;;;;;;;5067928;28;20033;-77
2022/02/07 11:48:20;;;;;;;2.30;1.17;;;;;;;;;;5032961;28;20051;-75
2022/02/07 11:50:46;;;;;;;2.35;0.70;;;;;;;;;;5051226;28;20064;-75
2022/02/07 11:53:16;;;;;;;6.97;0.75;;;;;;;;;;5051997;28;20032;-75
2022/02/07 11:55:47;;;;;;;1.95;0.70;;;;;;;;;;5067007;28;20036;-78
2022/02/07 11:58:23;;;;;;;3.25;0.60;;;;;;;;;;5067468;28;20029;-75
2022/02/07 12:00:57;;;;;;;3.20;1.05;;;;;;;;;;5067414;28;20036;-76
2022/02/07 12:03:25;;;;;;;1.48;1.05;;;;;;;;;;5066745;28;20044;-77
2022/02/07 12:05:56;;;;;;;1.15;0.75;;;;;;;;;;5050990;28;21666;-75
2022/02/07 12:08:27;;;;;;;1.83;0.47;;;;;;;;;;5051178;28;20071;-76
2022/02/07 12:11:02;;;;;;;0.93;0.85;;;;;;;;;;5051662;28;20344;-76
2022/02/07 12:13:28;;;;;;;1.15;0.43;;;;;;;;;;5066698;28;20036;-76
2022/02/07 12:15:55;;;;;;;3.78;0.77;;;;;;;;;;5066586;28;20021;-75
2022/02/07 12:18:23;;;;;;;1.25;0.30;;;;;;;;;;5066917;28;20060;-77
2022/02/07 12:20:51;;;;;;;5.55;0.50;;;;;;;;;;5067023;28;20035;-78
2022/02/07 12:23:21;;;;;;;0.60;0.20;;;;;;;;;;5051053;28;20024;-77
2022/02/07 12:25:49;;;;;;;5.25;0.85;;;;;;;;;;5051096;28;20021;-76
2022/02/07 12:28:30;;;;;;;2.53;0.68;;;;;;;;;;5051529;28;20450;-79
2022/02/07 12:31:04;;;;;;;0.70;0.70;;;;;;;;;;5050516;28;20056;-77
2022/02/07 12:33:31;;;;;;;1.10;0.55;;;;;;;;;;5050374;28;20037;-77
2022/02/07 12:35:57;;;;;;;1.48;0.30;;;;;;;;;;5051613;28;20021;-76
2022/02/07 12:38:25;;;;;;;5.82;0.98;;;;;;;;;;5066897;28;20457;-77
2022/02/07 12:40:51;;;;;;;5.82;1.20;;;;;;;;;;5049843;28;20465;-76
2022/02/07 12:43:19;;;;;;;2.63;0.63;;;;;;;;;;5050383;28;20087;-77
2022/02/07 12:45:45;;;;;;;1.50;0.52;;;;;;;;;;5049901;28;20033;-77
2022/02/07 12:48:17;;;;;;;2.05;0.50;;;;;;;;;;5065824;28;20172;-78
2022/02/07 12:50:49;;;;;;;0.65;0.47;;;;;;;;;;5066401;28;20138;-78
2022/02/07 12:53:19;;;;;;;2.88;0.50;;;;;;;;;;5065920;28;20033;-76
2022/02/07 12:55:46;;;;;;;2.53;0.70;;;;;;;;;;5050368;28;20039;-76
2022/02/07 12:58:13;;;;;;;2.67;0.77;;;;;;;;;;5050539;28;20093;-76
2022/02/07 13:00:39;;;;;;;2.85;0.60;;;;;;;;;;5050717;28;20548;-77
2022/02/07 13:03:05;;;;;;;1.92;0.68;;;;;;;;;;5066456;28;20525;-76
2022/02/07 13:05:31;;;;;;;1.63;0.80;;;;;;;;;;5066140;28;20475;-77
2022/02/07 13:08:02;;;;;;;2.80;0.95;;;;;;;;;;5066199;28;20033;-76
2022/02/07 13:10:34;;;;;;;2.35;0.63;;;;;;;;;;5050249;28;20037;-76
2022/02/07 13:15:30;;;;;;;2.22;0.60;;;;;;;;;;5051157;28;20041;-78
2022/02/07 13:18:04;;;;;;;0.82;0.38;;;;;;;;;;5067090;28;20111;-77
2022/02/07 13:20:36;;;;;;;2.10;0.60;;;;;;;;;;5065178;28;20186;-76
2022/02/07 13:23:14;;;;;;;2.70;0.65;;;;;;;;;;5050744;28;20112;-76
2022/02/07 13:25:45;;;;;;;7.88;1.10;;;;;;;;;;5051037;28;20074;-77
2022/02/07 13:28:20;;;;;;;1.10;0.30;;;;;;;;;;5049503;28;20039;-76
2022/02/07 13:30:48;;;;;;;1.13;0.43;;;;;;;;;;5065672;28;20045;-76
2022/02/07 13:33:16;;;;;;;1.13;0.40;;;;;;;;;;5051090;28;20041;-76
2022/02/07 13:35:45;;;;;;;2.90;1.35;;;;;;;;;;5066114;28;21669;-77
2022/02/07 13:38:12;;;;;;;0.70;0.35;;;;;;;;;;5050688;28;20170;-77
2022/02/07 13:40:45;;;;;;;2.80;1.13;;;;;;;;;;5065885;28;20347;-75
2022/02/07 13:43:18;;;;;;;1.75;0.60;;;;;;;;;;5050883;28;20028;-78
2022/02/07 13:45:49;;;;;;;0.70;0.40;;;;;;;;;;5065514;28;20107;-74
2022/02/07 13:48:16;;;;;;;2.67;0.90;;;;;;;;;;5066708;28;20037;-77
2022/02/07 13:50:45;;;;;;;0.52;0.50;;;;;;;;;;5049649;28;20522;-75
2022/02/07 13:53:13;;;;;;;2.65;0.85;;;;;;;;;;5050210;28;20048;-76
2022/02/07 13:55:43;;;;;;;0.70;0.35;;;;;;;;;;5065973;28;20436;-77
2022/02/07 13:58:13;;;;;;;0.52;0.22;;;;;;;;;;5050169;28;20029;-76
2022/02/07 14:00:54;;;;;;;4.28;0.40;;;;;;;;;;5066256;28;20086;-76
2022/02/07 14:03:21;;;;;;;1.30;0.55;;;;;;;;;;5067123;28;20062;-78
2022/02/07 14:05:50;;;;;;;1.60;0.70;;;;;;;;;;5054428;28;20091;-76
2022/02/07 14:08:17;;;;;;;1.20;0.45;;;;;;;;;;5069059;28;20036;-76
2022/02/07 14:10:44;;;;;;;0.93;0.40;;;;;;;;;;5053467;28;20369;-76
2022/02/07 14:13:18;;;;;;;0.95;0.45;;;;;;;;;;5053634;28;20039;-76
2022/02/07 14:15:47;;;;;;;0.77;0.30;;;;;;;;;;5069088;28;20497;-78
2022/02/07 14:18:17;;;;;;;1.80;0.35;;;;;;;;;;5069402;28;20021;-76
2022/02/07 14:20:43;;;;;;;1.58;0.38;;;;;;;;;;5069147;28;20461;-75
2022/02/07 14:23:13;;;;;;;1.65;0.15;;;;;;;;;;5053659;28;20029;-80
2022/02/07 14:25:44;;;;;;;0.77;0.50;;;;;;;;;;5053620;28;20464;-76
2022/02/07 14:28:11;;;;;;;0.43;0.40;;;;;;;;;;5052990;28;20024;-76
2022/02/07 14:30:37;;;;;;;1.88;0.32;;;;;;;;;;5053175;28;20028;-74
2022/02/07 14:33:05;;;;;;;2.28;0.63;;;;;;;;;;5053540;28;20033;-76
2022/02/07 14:35:32;;;;;;;0.95;0.47;;;;;;;;;;5069789;28;20037;-75
2022/02/07 14:38:02;;;;;;;1.77;0.50;;;;;;;;;;5052999;28;20025;-74
2022/02/07 14:40:28;;;;;;;0.90;0.52;;;;;;;;;;5068472;28;20044;-75
2022/02/07 14:42:57;;;;;;;0.73;0.45;;;;;;;;;;5052666;28;20035;-77
2022/02/07 14:45:32;;;;;;;2.08;1.10;;;;;;;;;;5052581;28;20028;-77
2022/02/07 14:48:01;;;;;;;1.00;0.22;;;;;;;;;;5053034;28;20029;-76
2022/02/07 14:50:30;;;;;;;0.45;0.25;;;;;;;;;;5052335;28;20039;-77
2022/02/07 14:52:57;;;;;;;0.85;0.30;;;;;;;;;;5052832;28;20052;-75
2022/02/07 14:55:24;;;;;;;0.93;0.47;;;;;;;;;;5053088;28;20166;-78
2022/02/07 14:57:52;;;;;;;0.65;0.20;;;;;;;;;;5068778;28;20047;-76
2022/02/07 15:00:23;;;;;;;0.65;0.20;;;;;;;;;;5052391;28;20032;-77
2022/02/07 15:02:49;;;;;;;2.20;0.63;;;;;;;;;;5068785;28;20560;-78
2022/02/07 15:05:16;;;;;;;0.82;0.50;;;;;;;;;;5052711;28;20033;-77
2022/02/07 15:07:45;;;;;;;2.10;0.38;;;;;;;;;;5068676;28;20032;-75
2022/02/07 15:10:11;;;;;;;1.15;0.22;;;;;;;;;;5067922;28;21698;-76
2022/02/07 15:12:38;;;;;;;1.88;0.30;;;;;;;;;;5052267;28;20044;-76
2022/02/07 15:15:07;;;;;;;0.70;0.30;;;;;;;;;;5051601;28;20671;-77
2022/02/07 15:17:34;;;;;;;1.63;0.63;;;;;;;;;;5053070;28;20032;-76
2022/02/07 15:20:04;;;;;;;1.58;0.70;;;;;;;;;;5052199;28;20021;-76
2022/02/07 15:22:31;;;;;;;1.00;0.68;;;;;;;;;;5068121;28;20024;-75
2022/02/07 15:24:59;;;;;;;1.08;0.35;;;;;;;;;;5067983;28;20033;-78
2022/02/07 15:27:26;;;;;;;1.13;0.52;;;;;;;;;;5068244;28;20484;-78
2022/02/07 15:29:55;;;;;;;1.35;0.50;;;;;;;;;;5068180;28;20036;-76
2022/02/07 15:34:54;;;;;;;0.63;0.40;;;;;;;;;;5052108;28;20029;-78
2022/02/07 15:37:21;;;;;;;0.35;0.20;;;;;;;;;;5051517;28;20093;-77
2022/02/07 15:39:49;;;;;;;2.83;0.60;;;;;;;;;;5051708;28;20025;-77
2022/02/07 15:42:16;;;;;;;0.60;0.20;;;;;;;;;;5067520;28;20029;-76
2022/02/07 15:44:42;;;;;;;2.15;0.40;;;;;;;;;;5067553;28;20047;-77
2022/02/07 15:47:08;;;;;;;1.15;0.22;;;;;;;;;;5067482;28;20179;-76
2022/02/07 15:49:35;;;;;;;2.88;0.57;;;;;;;;;;5051695;28;20029;-75
2022/02/07 15:52:01;;;;;;;0.50;0.22;;;;;;;;;;5052083;28;20368;-74
2022/02/07 15:54:30;;;;;;;0.50;0.20;;;;;;;;;;5051622;28;20123;-77
2022/02/07 15:56:56;;;;;;;0.75;0.20;;;;;;;;;;5067114;28;20400;-76
2022/02/07 15:59:24;;;;;;;1.35;0.50;;;;;;;;;;5052088;28;20025;-77
2022/02/07 16:01:53;;;;;;;1.88;0.30;;;;;;;;;;5067501;28;20403;-75
2022/02/07 16:04:19;;;;;;;2.00;0.28;;;;;;;;;;5051608;28;20095;-77
2022/02/07 16:06:45;;;;;;;1.17;0.30;;;;;;;;;;5067757;28;20571;-77
2022/02/07 16:09:11;;;;;;;3.20;0.40;;;;;;;;;;5050782;28;20020;-76
2022/02/07 16:11:37;;;;;;;1.60;0.80;;;;;;;;;;5066657;28;20024;-77
2022/02/07 16:14:06;;;;;;;0.82;0.25;;;;;;;;;;5051902;28;20029;-78
2022/02/07 16:16:34;;;;;;;0.90;0.45;;;;;;;;;;5067162;28;20127;-75
2022/02/07 16:19:01;;;;;;;3.13;0.75;;;;;;;;;;5050998;28;20384;-78
2022/02/07 16:21:30;;;;;;;1.52;0.40;;;;;;;;;;5066937;28;20029;-77
2022/02/07 16:23:56;;;;;;;0.68;0.20;;;;;;;;;;5051383;28;20028;-76
2022/02/07 16:26:22;;;;;;;0.57;0.38;;;;;;;;;;5051214;28;20094;-77
2022/02/07 16:28:49;;;;;;;1.65;0.65;;;;;;;;;;5065948;28;20090;-76
2022/02/07 16:31:15;;;;;;;1.38;0.20;;;;;;;;;;5067755;28;20130;-75
2022/02/07 16:33:41;;;;;;;0.80;0.30;;;;;;;;;;5051465;28;21676;-78
2022/02/07 16:36:10;;;;;;;1.70;0.22;;;;;;;;;;5050867;28;20031;-78
2022/02/07 16:38:36;;;;;;;1.60;0.50;;;;;;;;;;5051429;28;20098;-75
2022/02/07 16:41:05;;;;;;;0.65;0.40;;;;;;;;;;5051477;28;20469;-76
2022/02/07 16:43:36;;;;;;;1.15;0.30;;;;;;;;;;5051174;28;20082;-76
2022/02/07 16:46:16;;;;;;;0.82;0.35;;;;;;;;;;5050504;28;20035;-77
2022/02/07 16:48:43;;;;;;;1.13;0.30;;;;;;;;;;5065923;28;20047;-75
2022/02/07 16:51:12;;;;;;;0.93;0.28;;;;;;;;;;5049779;28;20032;-75
2022/02/07 16:53:38;;;;;;;1.48;0.30;;;;;;;;;;5066919;28;20040;-75
2022/02/07 16:56:04;;;;;;;1.00;0.28;;;;;;;;;;5050702;28;20166;-78
2022/02/07 16:58:30;;;;;;;0.30;0.17;;;;;;;;;;5050843;28;20470;-76
2022/02/07 17:00:56;;;;;;;3.33;0.40;;;;;;;;;;5049996;28;20041;-75
2022/02/07 17:03:22;;;;;;;0.68;0.20;;;;;;;;;;5050708;28;20052;-75
2022/02/07 17:05:48;;;;;;;0.45;0.20;;;;;;;;;;5066297;28;20085;-76
2022/02/07 17:08:16;;;;;;;0.40;0.40;;;;;;;;;;5066861;28;20098;-77
2022/02/07 17:10:44;;;;;;;0.77;0.30;;;;;;;;;;5050504;28;20039;-78
2022/02/07 17:13:13;;;;;;;0.88;0.50;;;;;;;;;;5049823;28;20907;-76
2022/02/07 17:15:39;;;;;;;0.60;0.22;;;;;;;;;;5048591;28;20465;-77
2022/02/07 17:18:07;;;;;;;0.73;0.25;;;;;;;;;;5050021;28;21262;-76
2022/02/07 17:20:33;;;;;;;0.30;0.20;;;;;;;;;;5049776;28;20039;-78
2022/02/07 17:22:59;;;;;;;2.75;0.30;;;;;;;;;;5065167;28;20029;-75
2022/02/07 17:25:26;;;;;;;1.50;0.50;;;;;;;;;;5065038;28;20047;-75
2022/02/07 17:27:52;;;;;;;1.05;0.30;;;;;;;;;;5049497;28;20053;-77
2022/02/07 17:30:19;;;;;;;2.25;0.60;;;;;;;;;;5050650;28;20583;-78
2022/02/07 17:32:45;;;;;;;0.35;0.30;;;;;;;;;;5050554;28;20593;-76